METAR Data
IDs: Format: Raw Decoded Include TAF

Data at: 2133 UTC 01 Dec 2021

METAR for:KLCK (Rickenbacker AFB, OH, US)
Text:KLCK 012055Z AUTO 12005KT 10SM SCT045 SCT070 07/06 A2992 RMK AO2 T00710057
Temperature: 7.1°C ( 45°F)
Dewpoint: 5.7°C ( 42°F) [RH = 91%]
Pressure (altimeter):29.92 inches Hg (1013.3 mb)
Winds:from the ESE (120 degrees) at 6 MPH (5 knots; 2.6 m/s)
Visibility:10 or more sm (16+ km)
Ceiling:at least 12,000 feet AGL
Clouds: scattered clouds at 4500 feet AGL, scattered clouds at 7000 feet AGL
QC Flag:automated observation with no human augmentation